createdAt,value
2022-10-17T00:01:14.334Z,67.38
2022-10-17T00:03:42.881Z,67.23
2022-10-17T00:06:14.977Z,67.28
2022-10-17T00:08:44.590Z,67.04
2022-10-17T00:11:18.229Z,67.31
2022-10-17T00:13:48.888Z,67.18
2022-10-17T00:16:20.272Z,68.14
2022-10-17T00:18:48.667Z,67.86
2022-10-17T00:21:18.105Z,67.60
2022-10-17T00:23:46.758Z,67.59
2022-10-17T00:26:16.295Z,67.23
2022-10-17T00:28:48.038Z,67.76
2022-10-17T00:31:16.728Z,67.27
2022-10-17T00:33:45.266Z,67.67
2022-10-17T00:36:16.752Z,67.07
2022-10-17T00:38:47.335Z,66.75
2022-10-17T00:41:18.327Z,67.46
2022-10-17T00:43:57.597Z,67.47
2022-10-17T00:46:27.848Z,67.64
2022-10-17T00:48:57.266Z,67.26
2022-10-17T00:51:32.314Z,67.31
2022-10-17T00:54:00.443Z,67.05
2022-10-17T00:56:29.194Z,66.84
2022-10-17T00:58:59.171Z,66.99
2022-10-17T01:01:30.469Z,67.31
2022-10-17T01:03:59.745Z,67.09
2022-10-17T01:06:28.246Z,67.64
2022-10-17T01:08:56.962Z,67.12
2022-10-17T01:11:34.694Z,67.31
2022-10-17T01:14:08.682Z,67.59
2022-10-17T01:16:41.094Z,68.06
2022-10-17T01:19:29.521Z,67.42
2022-10-17T01:22:02.340Z,67.90
2022-10-17T01:24:49.689Z,67.77
2022-10-17T01:27:59.555Z,67.58
2022-10-17T01:30:51.637Z,67.79
2022-10-17T01:33:28.290Z,68.29
2022-10-17T01:36:04.775Z,68.55
2022-10-17T01:38:38.471Z,68.36
2022-10-17T01:41:11.883Z,68.19
2022-10-17T01:43:42.792Z,67.47
2022-10-17T01:46:16.342Z,68.08
2022-10-17T01:48:47.402Z,68.35
2022-10-17T01:51:22.092Z,67.50
2022-10-17T01:53:51.587Z,67.15
2022-10-17T01:56:21.461Z,67.88
2022-10-17T01:58:52.771Z,67.36
2022-10-17T02:01:21.939Z,67.54
2022-10-17T02:03:52.983Z,67.57
2022-10-17T02:06:22.738Z,67.10
2022-10-17T02:08:52.837Z,67.80
2022-10-17T02:11:23.314Z,67.90
2022-10-17T02:14:14.528Z,67.72
2022-10-17T02:16:45.717Z,67.77
2022-10-17T02:19:29.292Z,67.44
2022-10-17T02:22:06.005Z,67.76
2022-10-17T02:24:38.738Z,68.10
2022-10-17T02:27:09.905Z,67.95
2022-10-17T02:29:40.264Z,67.65
2022-10-17T02:32:10.512Z,68.04
2022-10-17T02:34:42.260Z,67.95
2022-10-17T02:37:13.146Z,68.39
2022-10-17T02:39:42.232Z,68.19
2022-10-17T02:42:17.057Z,68.43
2022-10-17T02:44:46.313Z,67.89
2022-10-17T02:47:20.551Z,68.63
2022-10-17T02:49:53.099Z,68.79
2022-10-17T02:52:26.719Z,68.82
2022-10-17T02:54:59.626Z,68.88
2022-10-17T02:57:31.968Z,68.71
2022-10-17T03:00:02.730Z,69.34
2022-10-17T03:02:41.113Z,69.48
2022-10-17T03:05:13.576Z,69.72
2022-10-17T03:07:41.892Z,68.92
2022-10-17T03:10:10.474Z,69.15
2022-10-17T03:12:40.906Z,68.85
2022-10-17T03:15:11.732Z,68.58
2022-10-17T03:17:40.379Z,68.65
2022-10-17T03:20:12.364Z,69.34
2022-10-17T03:22:40.762Z,69.52
2022-10-17T03:25:09.604Z,69.01
2022-10-17T03:27:38.373Z,69.99
2022-10-17T03:30:07.859Z,69.59
2022-10-17T03:32:37.550Z,68.74
2022-10-17T03:35:07.650Z,69.30
2022-10-17T03:37:38.193Z,69.18
2022-10-17T03:40:07.667Z,68.97
2022-10-17T03:42:36.164Z,68.72
2022-10-17T03:45:04.922Z,68.45
2022-10-17T03:47:33.443Z,68.97
2022-10-17T03:50:02.446Z,68.80
2022-10-17T03:52:33.906Z,68.31
2022-10-17T03:55:05.214Z,68.70
2022-10-17T03:57:33.514Z,68.21
2022-10-17T04:00:01.967Z,68.63
2022-10-17T04:02:32.212Z,68.72
2022-10-17T04:05:00.589Z,68.30
2022-10-17T04:07:29.159Z,68.94
2022-10-17T04:09:57.525Z,69.18
2022-10-17T04:12:27.546Z,68.37
2022-10-17T04:14:56.333Z,68.69
2022-10-17T04:17:24.909Z,69.09
2022-10-17T04:19:53.281Z,68.93
2022-10-17T04:22:21.656Z,68.55
2022-10-17T04:24:49.988Z,69.19
2022-10-17T04:27:29.802Z,68.91
2022-10-17T04:29:58.206Z,68.78
2022-10-17T04:32:27.382Z,68.68
2022-10-17T04:35:19.008Z,68.60
2022-10-17T04:37:52.186Z,68.00
2022-10-17T04:40:22.004Z,68.55
2022-10-17T04:42:54.673Z,67.98
2022-10-17T04:45:28.715Z,68.62
2022-10-17T04:48:01.762Z,67.78
2022-10-17T04:50:30.314Z,68.38
2022-10-17T04:53:19.327Z,68.31
2022-10-17T04:55:47.905Z,68.09
2022-10-17T04:58:18.549Z,67.53
2022-10-17T05:00:49.389Z,67.69
2022-10-17T05:03:27.630Z,67.18
2022-10-17T05:05:58.239Z,67.17
2022-10-17T05:08:26.714Z,67.41
2022-10-17T05:10:55.168Z,67.03
2022-10-17T05:13:25.838Z,66.95
2022-10-17T05:15:54.364Z,66.68
2022-10-17T05:18:22.821Z,66.94
2022-10-17T05:20:51.284Z,67.19
2022-10-17T05:23:19.855Z,66.48
2022-10-17T05:25:48.195Z,66.27
2022-10-17T05:28:16.485Z,66.54
2022-10-17T05:30:46.566Z,66.28
2022-10-17T05:33:15.056Z,65.62
2022-10-17T05:35:43.574Z,65.55
2022-10-17T05:38:11.954Z,65.60
2022-10-17T05:40:42.887Z,65.36
2022-10-17T05:43:11.456Z,65.32
2022-10-17T05:45:39.885Z,65.24
2022-10-17T05:48:12.988Z,65.06
2022-10-17T05:50:41.356Z,65.00
2022-10-17T05:53:14.194Z,64.64
2022-10-17T05:55:48.186Z,64.46
2022-10-17T05:58:22.034Z,64.25
2022-10-17T06:00:59.384Z,64.19
2022-10-17T06:03:30.103Z,64.57
2022-10-17T06:05:59.986Z,64.27
2022-10-17T06:08:28.639Z,63.95
2022-10-17T06:10:57.080Z,64.19
2022-10-17T06:13:25.776Z,63.89
2022-10-17T06:15:55.543Z,63.60
2022-10-17T06:18:24.023Z,63.94
2022-10-17T06:20:54.852Z,63.81
2022-10-17T06:23:23.219Z,63.75
2022-10-17T06:26:02.376Z,63.39
2022-10-17T06:28:31.515Z,64.14
2022-10-17T06:31:00.117Z,63.93
2022-10-17T06:33:28.797Z,64.29
2022-10-17T06:35:58.825Z,63.70
2022-10-17T06:38:27.910Z,63.74
2022-10-17T06:41:05.077Z,63.22
2022-10-17T06:43:33.661Z,63.38
2022-10-17T06:46:26.891Z,63.17
2022-10-17T06:48:59.079Z,62.67
2022-10-17T06:51:51.676Z,62.38
2022-10-17T06:54:24.865Z,62.83
2022-10-17T06:57:05.089Z,62.51
2022-10-17T06:59:57.697Z,62.18
2022-10-17T07:02:32.873Z,61.83
2022-10-17T07:05:02.905Z,61.82
2022-10-17T07:07:33.804Z,61.51
2022-10-17T07:10:04.039Z,61.28
2022-10-17T07:12:32.615Z,61.11
2022-10-17T07:15:01.979Z,60.88
2022-10-17T07:17:31.587Z,61.44
2022-10-17T07:20:00.446Z,62.97
2022-10-17T07:22:28.853Z,63.33
2022-10-17T07:25:00.921Z,63.89
2022-10-17T07:27:38.221Z,63.72
2022-10-17T07:30:08.114Z,64.42
2022-10-17T07:32:54.367Z,64.15
2022-10-17T07:35:22.776Z,64.20
2022-10-17T07:37:51.693Z,63.75
2022-10-17T07:40:23.349Z,63.64
2022-10-17T07:42:51.771Z,63.79
2022-10-17T07:45:21.528Z,63.55
2022-10-17T07:47:49.957Z,63.89
2022-10-17T07:50:18.529Z,63.81
2022-10-17T07:52:47.312Z,64.54
2022-10-17T07:55:15.684Z,64.50
2022-10-17T07:57:45.489Z,65.13
2022-10-17T08:00:14.351Z,65.87
2022-10-17T08:02:42.827Z,66.75
2022-10-17T08:05:11.185Z,67.80
2022-10-17T08:07:40.481Z,67.73
2022-10-17T08:12:38.016Z,68.67
2022-10-17T08:15:09.631Z,69.16
2022-10-17T08:17:39.921Z,68.96
2022-10-17T08:20:08.755Z,69.13
2022-10-17T08:22:37.148Z,68.80
2022-10-17T08:25:06.284Z,69.00
2022-10-17T08:27:34.973Z,68.86
2022-10-17T08:30:04.124Z,68.61
2022-10-17T08:32:33.961Z,68.49
2022-10-17T08:35:02.455Z,68.58
2022-10-17T08:37:32.769Z,69.26
2022-10-17T08:40:01.625Z,68.91
2022-10-17T08:42:45.699Z,69.04
2022-10-17T08:45:18.789Z,68.86
2022-10-17T08:47:50.876Z,68.47
2022-10-17T08:50:25.913Z,68.44
2022-10-17T08:52:57.179Z,68.62
2022-10-17T08:55:31.061Z,68.80
2022-10-17T08:57:59.442Z,69.29
2022-10-17T09:00:28.213Z,69.79
2022-10-17T09:03:11.374Z,70.46
2022-10-17T09:05:48.312Z,71.04
2022-10-17T09:08:26.151Z,71.80
2022-10-17T09:10:59.329Z,73.12
2022-10-17T09:13:54.776Z,74.20
2022-10-17T09:16:27.115Z,74.65
2022-10-17T09:19:01.732Z,75.81
2022-10-17T09:21:40.281Z,76.74
2022-10-17T09:24:16.257Z,78.16
2022-10-17T09:26:46.531Z,78.77
2022-10-17T09:29:20.650Z,80.00
2022-10-17T09:31:53.064Z,80.94
2022-10-17T09:34:26.743Z,80.74
2022-10-17T09:36:56.090Z,81.02
2022-10-17T09:39:26.412Z,81.28
2022-10-17T09:41:56.924Z,80.94
2022-10-17T09:44:27.090Z,81.02
2022-10-17T09:47:09.877Z,81.09
2022-10-17T09:49:41.724Z,81.12
2022-10-17T09:52:13.995Z,81.03
2022-10-17T09:54:46.445Z,80.76
2022-10-17T09:57:16.043Z,81.03
2022-10-17T09:59:46.618Z,81.27
2022-10-17T10:02:21.593Z,81.09
2022-10-17T10:05:04.223Z,80.23
2022-10-17T10:07:34.813Z,79.74
2022-10-17T10:10:05.326Z,79.52
2022-10-17T10:12:35.732Z,79.10
2022-10-17T10:15:06.145Z,79.67
2022-10-17T10:17:41.774Z,79.17
2022-10-17T10:20:36.586Z,79.60
2022-10-17T10:23:17.421Z,78.98
2022-10-17T10:25:55.261Z,78.75
2022-10-17T10:28:28.278Z,78.62
2022-10-17T10:30:58.174Z,78.60
2022-10-17T10:33:30.478Z,78.36
2022-10-17T10:36:03.502Z,78.58
2022-10-17T10:38:32.741Z,78.11
2022-10-17T10:41:05.329Z,79.27
2022-10-17T10:43:37.900Z,78.75
2022-10-17T10:46:16.731Z,78.65
2022-10-17T10:48:52.498Z,78.67
2022-10-17T10:51:26.878Z,78.67
2022-10-17T10:54:00.641Z,78.76
2022-10-17T10:56:32.946Z,79.05
2022-10-17T10:59:04.830Z,78.99
2022-10-17T11:01:36.305Z,79.38
2022-10-17T11:04:13.528Z,79.35
2022-10-17T11:06:46.140Z,79.42
2022-10-17T11:09:34.540Z,79.57
2022-10-17T11:12:06.881Z,79.59
2022-10-17T11:14:43.935Z,79.01
2022-10-17T11:17:19.493Z,79.17
2022-10-17T11:19:52.884Z,79.99
2022-10-17T11:22:28.287Z,79.35
2022-10-17T11:25:00.976Z,79.92
2022-10-17T11:27:30.981Z,80.01
2022-10-17T11:30:00.034Z,80.44
2022-10-17T11:32:32.871Z,80.29
2022-10-17T11:35:04.597Z,80.83
2022-10-17T11:37:40.242Z,81.18
2022-10-17T11:40:19.224Z,81.17
2022-10-17T11:42:54.693Z,81.62
2022-10-17T11:45:25.138Z,81.93
2022-10-17T11:47:57.090Z,82.66
2022-10-17T11:53:20.842Z,83.08
2022-10-17T11:55:49.538Z,83.18
2022-10-17T11:58:30.766Z,83.08
2022-10-17T12:01:08.884Z,82.70
2022-10-17T12:03:47.798Z,82.69
2022-10-17T12:06:19.314Z,82.67
2022-10-17T12:08:54.944Z,84.54
2022-10-17T12:11:35.854Z,84.16
2022-10-17T12:14:06.207Z,84.08
2022-10-17T12:16:49.669Z,84.31
2022-10-17T12:19:32.597Z,84.38
2022-10-17T12:22:04.968Z,84.55
2022-10-17T12:24:38.852Z,84.88
2022-10-17T12:27:38.254Z,84.38
2022-10-17T12:30:17.187Z,85.20
2022-10-17T12:33:06.304Z,84.89
2022-10-17T12:35:37.326Z,84.75
2022-10-17T12:38:23.671Z,84.71
2022-10-17T12:41:11.555Z,84.76
2022-10-17T12:46:56.882Z,84.58
2022-10-17T12:49:51.194Z,84.34
2022-10-17T12:52:23.615Z,85.09
2022-10-17T12:55:16.765Z,84.79
2022-10-17T12:58:08.267Z,85.12
2022-10-17T13:00:39.230Z,85.02
2022-10-17T13:03:13.367Z,85.36
2022-10-17T13:05:43.879Z,85.25
2022-10-17T13:08:17.769Z,85.75
2022-10-17T13:10:51.617Z,85.89
2022-10-17T13:13:25.027Z,86.09
2022-10-17T13:15:54.884Z,86.29
2022-10-17T13:18:24.817Z,85.98
2022-10-17T13:20:58.110Z,86.08
2022-10-17T13:23:27.217Z,86.15
2022-10-17T13:26:21.169Z,86.33
2022-10-17T13:29:04.141Z,85.91
2022-10-17T13:31:40.567Z,86.35
2022-10-17T13:34:18.262Z,86.09
2022-10-17T13:36:49.035Z,86.20
2022-10-17T13:39:19.906Z,86.16
2022-10-17T13:42:01.104Z,86.11
2022-10-17T13:44:37.743Z,86.36
2022-10-17T13:47:06.940Z,86.40
2022-10-17T13:49:36.431Z,85.79
2022-10-17T13:52:06.015Z,85.83
2022-10-17T13:54:37.249Z,85.76
2022-10-17T13:57:06.903Z,85.54
2022-10-17T13:59:40.092Z,85.79
2022-10-17T14:02:15.019Z,85.57
2022-10-17T14:05:15.526Z,85.61
2022-10-17T14:07:58.338Z,85.68
2022-10-17T14:10:26.562Z,85.70
2022-10-17T14:12:56.171Z,85.88
2022-10-17T14:15:27.663Z,86.08
2022-10-17T14:17:57.598Z,86.49
2022-10-17T14:21:07.769Z,86.96
2022-10-17T14:23:31.397Z,87.25
2022-10-17T14:26:07.993Z,87.28
2022-10-17T14:28:37.635Z,87.70
2022-10-17T14:31:30.398Z,87.81
2022-10-17T14:33:59.133Z,87.74
2022-10-17T14:36:39.468Z,87.48
2022-10-17T14:39:14.081Z,87.49
2022-10-17T14:41:45.280Z,87.39
2022-10-17T14:44:22.057Z,87.41
2022-10-17T14:46:55.576Z,87.02
2022-10-17T14:49:29.513Z,87.20
2022-10-17T14:52:25.745Z,87.57
2022-10-17T14:54:54.170Z,87.36
2022-10-17T14:57:26.841Z,87.18
2022-10-17T14:59:55.853Z,87.60
2022-10-17T15:02:26.234Z,87.55
2022-10-17T15:04:54.747Z,87.67
2022-10-17T15:07:23.791Z,88.01
2022-10-17T15:09:53.930Z,88.08
2022-10-17T15:12:25.167Z,88.24
2022-10-17T15:14:54.543Z,88.28
2022-10-17T15:17:27.599Z,88.08
2022-10-17T15:19:56.692Z,87.83
2022-10-17T15:22:25.498Z,88.28
2022-10-17T15:24:53.968Z,88.11
2022-10-17T15:27:24.875Z,88.67
2022-10-17T15:29:54.135Z,88.65
2022-10-17T15:32:22.491Z,88.60
2022-10-17T15:34:52.231Z,88.22
2022-10-17T15:37:22.961Z,88.01
2022-10-17T15:39:53.695Z,87.89
2022-10-17T15:42:23.929Z,87.59
2022-10-17T15:44:52.348Z,87.51
2022-10-17T15:47:25.578Z,87.45
2022-10-17T15:49:55.961Z,86.91
2022-10-17T15:52:24.502Z,86.32
2022-10-17T15:54:53.490Z,86.08
2022-10-17T15:57:23.463Z,85.92
2022-10-17T15:59:52.833Z,86.08
2022-10-17T16:02:22.522Z,85.54
2022-10-17T16:04:52.165Z,86.02
2022-10-17T16:07:22.367Z,85.26
2022-10-17T16:10:05.474Z,85.53
2022-10-17T16:12:38.117Z,85.40
2022-10-17T16:15:07.435Z,85.19
2022-10-17T16:17:35.879Z,85.47
2022-10-17T16:20:04.424Z,85.24
2022-10-17T16:22:36.724Z,85.23
2022-10-17T16:25:10.152Z,84.96
2022-10-17T16:27:39.061Z,85.03
2022-10-17T16:30:09.291Z,84.37
2022-10-17T16:32:37.748Z,84.44
2022-10-17T16:35:06.978Z,84.56
2022-10-17T16:37:37.072Z,84.44
2022-10-17T16:40:06.295Z,84.20
2022-10-17T16:42:35.671Z,84.04
2022-10-17T16:45:04.062Z,84.74
2022-10-17T16:47:32.481Z,84.17
2022-10-17T16:50:00.864Z,84.36
2022-10-17T16:52:30.025Z,84.16
2022-10-17T16:55:00.133Z,84.42
2022-10-17T16:57:28.601Z,84.90
2022-10-17T16:59:57.178Z,84.44
2022-10-17T17:02:25.538Z,84.24
2022-10-17T17:04:54.039Z,84.28
2022-10-17T17:07:24.619Z,84.54
2022-10-17T17:09:53.848Z,84.37
2022-10-17T17:12:23.660Z,84.45
2022-10-17T17:14:52.546Z,84.56
2022-10-17T17:17:30.702Z,84.35
2022-10-17T17:20:06.362Z,84.92
2022-10-17T17:22:34.997Z,84.78
2022-10-17T17:25:03.668Z,84.61
2022-10-17T17:27:33.662Z,84.46
2022-10-17T17:30:02.070Z,84.65
2022-10-17T17:32:34.430Z,84.40
2022-10-17T17:35:02.862Z,84.01
2022-10-17T17:37:32.307Z,84.54
2022-10-17T17:40:01.051Z,84.71
2022-10-17T17:42:31.537Z,84.84
2022-10-17T17:45:01.408Z,85.08
2022-10-17T17:47:31.628Z,84.48
2022-10-17T17:50:00.278Z,84.71
2022-10-17T17:52:29.976Z,84.70
2022-10-17T17:54:58.863Z,84.46
2022-10-17T17:57:27.778Z,84.05
2022-10-17T17:59:56.386Z,84.71
2022-10-17T18:02:26.353Z,84.66
2022-10-17T18:04:54.966Z,84.32
2022-10-17T18:07:23.488Z,84.16
2022-10-17T18:09:52.245Z,84.61
2022-10-17T18:12:20.984Z,84.06
2022-10-17T18:14:49.658Z,84.73
2022-10-17T18:17:18.186Z,84.40
2022-10-17T18:19:48.062Z,84.54
2022-10-17T18:22:16.639Z,84.71
2022-10-17T18:24:45.973Z,84.53
2022-10-17T18:27:16.343Z,84.41
2022-10-17T18:29:45.962Z,84.51
2022-10-17T18:32:14.678Z,85.00
2022-10-17T18:34:43.318Z,84.75
2022-10-17T18:37:13.262Z,84.57
2022-10-17T18:39:41.802Z,84.51
2022-10-17T18:42:11.497Z,85.19
2022-10-17T18:44:39.988Z,85.36
2022-10-17T18:47:08.698Z,85.30
2022-10-17T18:49:37.748Z,84.85
2022-10-17T18:52:06.422Z,85.04
2022-10-17T18:54:36.410Z,85.74
2022-10-17T18:57:04.989Z,85.64
2022-10-17T18:59:33.984Z,85.87
2022-10-17T19:02:02.497Z,86.38
2022-10-17T19:04:31.105Z,86.52
2022-10-17T19:06:59.630Z,86.78
2022-10-17T19:09:28.160Z,87.35
2022-10-17T19:11:58.081Z,87.36
2022-10-17T19:14:26.610Z,87.44
2022-10-17T19:16:55.159Z,88.16
2022-10-17T19:19:25.310Z,88.12
2022-10-17T19:21:54.754Z,88.21
2022-10-17T19:24:25.554Z,88.93
2022-10-17T19:26:58.401Z,89.00
2022-10-17T19:29:28.835Z,88.89
2022-10-17T19:31:57.354Z,89.16
2022-10-17T19:34:25.863Z,89.61
2022-10-17T19:36:55.883Z,89.48
2022-10-17T19:39:26.756Z,89.81
2022-10-17T19:41:56.012Z,89.97
2022-10-17T19:44:25.934Z,90.31
2022-10-17T19:46:54.688Z,89.76
2022-10-17T19:49:23.075Z,90.01
2022-10-17T19:51:51.628Z,90.13
2022-10-17T19:54:20.506Z,90.29
2022-10-17T19:56:48.907Z,90.06
2022-10-17T19:59:18.318Z,90.48
2022-10-17T20:01:48.267Z,90.61
2022-10-17T20:04:16.907Z,90.32
2022-10-17T20:06:45.402Z,90.72
2022-10-17T20:09:16.910Z,90.59
2022-10-17T20:11:46.366Z,90.36
2022-10-17T20:14:14.772Z,90.71
2022-10-17T20:16:44.895Z,90.67
2022-10-17T20:19:14.889Z,90.70
2022-10-17T20:21:43.981Z,90.46
2022-10-17T20:24:14.516Z,90.68
2022-10-17T20:26:43.907Z,91.19
2022-10-17T20:29:15.306Z,90.82
2022-10-17T20:31:45.494Z,90.87
2022-10-17T20:34:17.251Z,91.20
2022-10-17T20:36:45.944Z,90.82
2022-10-17T20:39:15.925Z,91.09
2022-10-17T20:41:44.918Z,90.90
2022-10-17T20:44:13.965Z,91.24
2022-10-17T20:46:48.780Z,91.06
2022-10-17T20:49:30.580Z,91.04
2022-10-17T20:51:59.307Z,91.22
2022-10-17T20:54:28.485Z,91.07
2022-10-17T20:56:59.848Z,91.21
2022-10-17T20:59:31.429Z,91.66
2022-10-17T21:02:00.022Z,91.11
2022-10-17T21:04:47.149Z,91.44
2022-10-17T21:07:16.113Z,91.43
2022-10-17T21:09:46.507Z,91.74
2022-10-17T21:12:25.948Z,91.54
2022-10-17T21:14:59.818Z,91.64
2022-10-17T21:17:28.323Z,91.42
2022-10-17T21:19:58.257Z,91.44
2022-10-17T21:22:27.023Z,91.33
2022-10-17T21:24:55.699Z,91.26
2022-10-17T21:27:24.138Z,91.26
2022-10-17T21:29:55.153Z,91.16
2022-10-17T21:32:39.404Z,90.58
2022-10-17T21:35:13.562Z,90.70
2022-10-17T21:37:42.009Z,90.54
2022-10-17T21:40:11.511Z,90.16
2022-10-17T21:42:43.057Z,89.82
2022-10-17T21:45:15.846Z,90.09
2022-10-17T21:48:12.350Z,89.67
2022-10-17T21:50:42.904Z,89.86
2022-10-17T21:53:11.392Z,89.32
2022-10-17T21:55:39.870Z,89.45
2022-10-17T21:58:08.456Z,89.71
2022-10-17T22:00:40.784Z,89.67
2022-10-17T22:03:09.786Z,89.55
2022-10-17T22:05:38.190Z,89.56
2022-10-17T22:08:08.381Z,89.78
2022-10-17T22:10:38.794Z,89.51
2022-10-17T22:13:07.921Z,89.57
2022-10-17T22:15:36.611Z,89.16
2022-10-17T22:18:13.390Z,88.92
2022-10-17T22:20:42.204Z,89.00
2022-10-17T22:23:12.853Z,89.00
2022-10-17T22:25:41.500Z,88.82
2022-10-17T22:28:10.050Z,88.46
2022-10-17T22:30:39.958Z,88.80
2022-10-17T22:33:08.438Z,88.67
2022-10-17T22:35:37.087Z,88.51
2022-10-17T22:38:05.697Z,88.03
2022-10-17T22:40:35.575Z,88.20
2022-10-17T22:43:04.216Z,88.43
2022-10-17T22:45:32.605Z,87.92
2022-10-17T22:48:01.057Z,88.04
2022-10-17T22:50:29.616Z,88.17
2022-10-17T22:52:58.004Z,88.03
2022-10-17T22:55:26.873Z,88.03
2022-10-17T22:57:56.860Z,88.21
2022-10-17T23:00:25.463Z,87.98
2022-10-17T23:02:55.312Z,88.03
2022-10-17T23:05:23.801Z,87.94
2022-10-17T23:07:52.200Z,87.79
2022-10-17T23:10:20.569Z,87.66
2022-10-17T23:12:49.122Z,87.14
2022-10-17T23:15:19.097Z,87.21
2022-10-17T23:17:47.450Z,87.06
2022-10-17T23:20:15.882Z,87.17
2022-10-17T23:22:44.401Z,86.95
2022-10-17T23:25:12.758Z,86.82
2022-10-17T23:27:41.159Z,86.77
2022-10-17T23:30:11.862Z,86.82
2022-10-17T23:32:42.217Z,86.47
2022-10-17T23:35:11.054Z,86.72
2022-10-17T23:37:39.450Z,86.75
2022-10-17T23:40:09.328Z,86.20
2022-10-17T23:42:37.766Z,86.16
2022-10-17T23:45:07.022Z,86.27
2022-10-17T23:47:35.453Z,86.46
2022-10-17T23:50:05.808Z,86.57
2022-10-17T23:52:34.311Z,86.45
2022-10-17T23:55:02.810Z,86.64
2022-10-17T23:57:32.239Z,86.71
